Tetovo, Macedonia
Current Conditions -  °F | °C
As of 1:00 AM on Wednesday 28 Jan 2015 (Local Time) from LWSK Reporting Station
Overcast Overcast  
Wind Chill: 33°   Ceiling: 3300
Heat Index: 37°   Visibility: 6mi
Dew Point: 32°   Wind: 6mph
Humidity: 81%   Direction: 40°NE
Pressure: 29.85"   Gusts: NA
Location:  42.01°N, 20.97°E
Report Text: LWSK 272300Z 04005KT 9999 SCT020 OVC033 03/00 Q1011 NOSIG
Loading
Personal Weather Stations






























Interactive Weather Map New forecast layout! Learn more

10-Day Weather Forecast

Advertisements
Track Severe Weather on mobile